sensor_id;sensor_type;location;lat;lon;timestamp;P1;durP1;ratioP1;P2;durP2;ratioP2
4148;SDS011;2088;51.032;7.082;2022-10-31T00:00:52;10.90;;;3.80;;
4148;SDS011;2088;51.032;7.082;2022-10-31T00:03:18;7.50;;;3.57;;
4148;SDS011;2088;51.032;7.082;2022-10-31T00:05:46;7.57;;;3.17;;
4148;SDS011;2088;51.032;7.082;2022-10-31T00:08:13;5.17;;;3.60;;
4148;SDS011;2088;51.032;7.082;2022-10-31T00:10:40;11.70;;;4.50;;
4148;SDS011;2088;51.032;7.082;2022-10-31T00:13:08;3.33;;;2.70;;
4148;SDS011;2088;51.032;7.082;2022-10-31T00:15:37;5.97;;;3.47;;
4148;SDS011;2088;51.032;7.082;2022-10-31T00:18:04;7.87;;;4.00;;
4148;SDS011;2088;51.032;7.082;2022-10-31T00:20:32;5.90;;;3.87;;
4148;SDS011;2088;51.032;7.082;2022-10-31T00:23:00;14.03;;;3.40;;
4148;SDS011;2088;51.032;7.082;2022-10-31T00:25:27;8.83;;;3.30;;
4148;SDS011;2088;51.032;7.082;2022-10-31T00:27:54;8.30;;;3.93;;
4148;SDS011;2088;51.032;7.082;2022-10-31T00:30:21;7.10;;;3.87;;
4148;SDS011;2088;51.032;7.082;2022-10-31T00:32:49;8.97;;;3.37;;
4148;SDS011;2088;51.032;7.082;2022-10-31T00:35:15;6.77;;;4.03;;
4148;SDS011;2088;51.032;7.082;2022-10-31T00:37:41;8.20;;;3.30;;
4148;SDS011;2088;51.032;7.082;2022-10-31T00:40:08;7.83;;;5.10;;
4148;SDS011;2088;51.032;7.082;2022-10-31T00:42:36;9.50;;;4.57;;
4148;SDS011;2088;51.032;7.082;2022-10-31T00:45:03;5.30;;;3.87;;
4148;SDS011;2088;51.032;7.082;2022-10-31T00:47:29;9.47;;;3.20;;
4148;SDS011;2088;51.032;7.082;2022-10-31T00:49:57;11.83;;;3.33;;
4148;SDS011;2088;51.032;7.082;2022-10-31T00:52:23;4.77;;;3.30;;
4148;SDS011;2088;51.032;7.082;2022-10-31T00:54:50;10.00;;;3.53;;
4148;SDS011;2088;51.032;7.082;2022-10-31T00:57:16;7.23;;;3.90;;
4148;SDS011;2088;51.032;7.082;2022-10-31T00:59:43;6.57;;;3.13;;
4148;SDS011;2088;51.032;7.082;2022-10-31T01:02:09;12.93;;;4.20;;
4148;SDS011;2088;51.032;7.082;2022-10-31T01:04:35;9.40;;;3.53;;
4148;SDS011;2088;51.032;7.082;2022-10-31T01:07:03;8.80;;;3.57;;
4148;SDS011;2088;51.032;7.082;2022-10-31T01:09:30;15.13;;;3.90;;
4148;SDS011;2088;51.032;7.082;2022-10-31T01:11:56;8.90;;;4.00;;
4148;SDS011;2088;51.032;7.082;2022-10-31T01:14:22;8.03;;;3.33;;
4148;SDS011;2088;51.032;7.082;2022-10-31T01:16:49;9.53;;;3.50;;
4148;SDS011;2088;51.032;7.082;2022-10-31T01:19:15;5.73;;;3.60;;
4148;SDS011;2088;51.032;7.082;2022-10-31T01:21:42;10.00;;;3.50;;
4148;SDS011;2088;51.032;7.082;2022-10-31T01:24:09;8.93;;;3.83;;
4148;SDS011;2088;51.032;7.082;2022-10-31T01:26:36;14.27;;;3.57;;
4148;SDS011;2088;51.032;7.082;2022-10-31T01:29:03;16.03;;;5.53;;
4148;SDS011;2088;51.032;7.082;2022-10-31T01:31:32;8.17;;;3.43;;
4148;SDS011;2088;51.032;7.082;2022-10-31T01:34:00;6.30;;;2.77;;
4148;SDS011;2088;51.032;7.082;2022-10-31T01:36:27;14.27;;;4.00;;
4148;SDS011;2088;51.032;7.082;2022-10-31T01:38:56;9.30;;;3.93;;
4148;SDS011;2088;51.032;7.082;2022-10-31T01:41:27;13.33;;;2.50;;
4148;SDS011;2088;51.032;7.082;2022-10-31T01:43:56;10.00;;;2.93;;
4148;SDS011;2088;51.032;7.082;2022-10-31T01:46:24;15.77;;;3.33;;
4148;SDS011;2088;51.032;7.082;2022-10-31T01:48:54;9.93;;;3.87;;
4148;SDS011;2088;51.032;7.082;2022-10-31T01:51:24;7.87;;;3.60;;
4148;SDS011;2088;51.032;7.082;2022-10-31T01:53:54;7.27;;;3.40;;
4148;SDS011;2088;51.032;7.082;2022-10-31T01:56:24;11.50;;;4.03;;
4148;SDS011;2088;51.032;7.082;2022-10-31T01:58:52;6.73;;;4.03;;
4148;SDS011;2088;51.032;7.082;2022-10-31T02:01:20;15.27;;;4.47;;
4148;SDS011;2088;51.032;7.082;2022-10-31T02:03:47;10.30;;;3.80;;
4148;SDS011;2088;51.032;7.082;2022-10-31T02:06:18;7.67;;;3.77;;
4148;SDS011;2088;51.032;7.082;2022-10-31T02:08:52;10.67;;;3.43;;
4148;SDS011;2088;51.032;7.082;2022-10-31T02:11:20;10.00;;;4.53;;
4148;SDS011;2088;51.032;7.082;2022-10-31T02:13:47;17.80;;;5.57;;
4148;SDS011;2088;51.032;7.082;2022-10-31T02:16:15;16.40;;;4.73;;
4148;SDS011;2088;51.032;7.082;2022-10-31T02:18:41;11.13;;;4.23;;
4148;SDS011;2088;51.032;7.082;2022-10-31T02:21:11;10.90;;;4.50;;
4148;SDS011;2088;51.032;7.082;2022-10-31T02:23:47;7.23;;;3.50;;
4148;SDS011;2088;51.032;7.082;2022-10-31T02:26:51;12.80;;;5.00;;
4148;SDS011;2088;51.032;7.082;2022-10-31T02:32:33;20.93;;;5.97;;
4148;SDS011;2088;51.032;7.082;2022-10-31T02:35:08;18.93;;;5.00;;
4148;SDS011;2088;51.032;7.082;2022-10-31T02:37:41;9.37;;;3.73;;
4148;SDS011;2088;51.032;7.082;2022-10-31T02:40:15;10.60;;;4.80;;
4148;SDS011;2088;51.032;7.082;2022-10-31T02:42:48;6.90;;;4.23;;
4148;SDS011;2088;51.032;7.082;2022-10-31T02:45:23;9.60;;;4.00;;
4148;SDS011;2088;51.032;7.082;2022-10-31T02:47:56;14.97;;;5.80;;
4148;SDS011;2088;51.032;7.082;2022-10-31T02:50:27;7.33;;;4.40;;
4148;SDS011;2088;51.032;7.082;2022-10-31T02:52:57;13.50;;;4.37;;
4148;SDS011;2088;51.032;7.082;2022-10-31T02:55:42;6.23;;;3.40;;
4148;SDS011;2088;51.032;7.082;2022-10-31T02:58:15;12.80;;;3.93;;
4148;SDS011;2088;51.032;7.082;2022-10-31T03:00:48;13.77;;;3.90;;
4148;SDS011;2088;51.032;7.082;2022-10-31T03:03:24;11.27;;;3.83;;
4148;SDS011;2088;51.032;7.082;2022-10-31T03:06:00;4.80;;;3.80;;
4148;SDS011;2088;51.032;7.082;2022-10-31T03:08:34;6.03;;;3.20;;
4148;SDS011;2088;51.032;7.082;2022-10-31T03:11:06;11.67;;;4.13;;
4148;SDS011;2088;51.032;7.082;2022-10-31T03:13:34;13.03;;;5.27;;
4148;SDS011;2088;51.032;7.082;2022-10-31T03:16:07;7.37;;;3.80;;
4148;SDS011;2088;51.032;7.082;2022-10-31T03:18:42;31.20;;;6.77;;
4148;SDS011;2088;51.032;7.082;2022-10-31T03:21:16;6.73;;;3.43;;
4148;SDS011;2088;51.032;7.082;2022-10-31T03:23:47;11.00;;;4.40;;
4148;SDS011;2088;51.032;7.082;2022-10-31T03:26:16;14.80;;;5.03;;
4148;SDS011;2088;51.032;7.082;2022-10-31T03:28:44;8.03;;;4.50;;
4148;SDS011;2088;51.032;7.082;2022-10-31T03:31:16;12.73;;;4.73;;
4148;SDS011;2088;51.032;7.082;2022-10-31T03:33:46;17.70;;;4.97;;
4148;SDS011;2088;51.032;7.082;2022-10-31T03:36:16;7.93;;;4.40;;
4148;SDS011;2088;51.032;7.082;2022-10-31T03:38:44;7.40;;;4.27;;
4148;SDS011;2088;51.032;7.082;2022-10-31T03:41:13;10.57;;;4.10;;
4148;SDS011;2088;51.032;7.082;2022-10-31T03:43:46;9.40;;;3.50;;
4148;SDS011;2088;51.032;7.082;2022-10-31T03:46:18;12.63;;;4.60;;
4148;SDS011;2088;51.032;7.082;2022-10-31T03:48:46;9.97;;;3.70;;
4148;SDS011;2088;51.032;7.082;2022-10-31T03:51:13;10.97;;;3.70;;
4148;SDS011;2088;51.032;7.082;2022-10-31T03:53:45;8.70;;;4.10;;
4148;SDS011;2088;51.032;7.082;2022-10-31T03:56:19;6.23;;;3.77;;
4148;SDS011;2088;51.032;7.082;2022-10-31T03:58:54;10.23;;;3.90;;
4148;SDS011;2088;51.032;7.082;2022-10-31T04:01:26;12.83;;;5.03;;
4148;SDS011;2088;51.032;7.082;2022-10-31T04:03:57;22.60;;;4.23;;
4148;SDS011;2088;51.032;7.082;2022-10-31T04:06:25;8.50;;;4.03;;
4148;SDS011;2088;51.032;7.082;2022-10-31T04:08:53;12.37;;;5.00;;
4148;SDS011;2088;51.032;7.082;2022-10-31T04:11:23;8.77;;;4.00;;
4148;SDS011;2088;51.032;7.082;2022-10-31T04:13:54;6.60;;;4.30;;
4148;SDS011;2088;51.032;7.082;2022-10-31T04:16:22;9.50;;;4.33;;
4148;SDS011;2088;51.032;7.082;2022-10-31T04:18:51;8.83;;;4.60;;
4148;SDS011;2088;51.032;7.082;2022-10-31T04:21:19;12.53;;;4.50;;
4148;SDS011;2088;51.032;7.082;2022-10-31T04:23:45;27.77;;;4.30;;
4148;SDS011;2088;51.032;7.082;2022-10-31T04:26:12;9.20;;;4.40;;
4148;SDS011;2088;51.032;7.082;2022-10-31T04:28:39;11.30;;;4.83;;
4148;SDS011;2088;51.032;7.082;2022-10-31T04:31:05;7.77;;;3.60;;
4148;SDS011;2088;51.032;7.082;2022-10-31T04:33:31;7.40;;;3.70;;
4148;SDS011;2088;51.032;7.082;2022-10-31T04:35:58;5.53;;;3.33;;
4148;SDS011;2088;51.032;7.082;2022-10-31T04:38:26;12.97;;;5.00;;
4148;SDS011;2088;51.032;7.082;2022-10-31T04:40:52;13.47;;;4.63;;
4148;SDS011;2088;51.032;7.082;2022-10-31T04:43:18;7.50;;;4.27;;
4148;SDS011;2088;51.032;7.082;2022-10-31T04:45:45;14.17;;;6.07;;
4148;SDS011;2088;51.032;7.082;2022-10-31T04:48:11;11.93;;;4.40;;
4148;SDS011;2088;51.032;7.082;2022-10-31T04:50:38;9.23;;;4.47;;
4148;SDS011;2088;51.032;7.082;2022-10-31T04:53:04;11.53;;;5.37;;
4148;SDS011;2088;51.032;7.082;2022-10-31T04:55:32;11.90;;;5.07;;
4148;SDS011;2088;51.032;7.082;2022-10-31T04:57:59;10.77;;;5.17;;
4148;SDS011;2088;51.032;7.082;2022-10-31T05:00:25;11.17;;;4.27;;
4148;SDS011;2088;51.032;7.082;2022-10-31T05:02:52;14.27;;;3.70;;
4148;SDS011;2088;51.032;7.082;2022-10-31T05:05:21;9.33;;;3.80;;
4148;SDS011;2088;51.032;7.082;2022-10-31T05:07:49;34.33;;;4.40;;
4148;SDS011;2088;51.032;7.082;2022-10-31T05:10:17;9.17;;;4.97;;
4148;SDS011;2088;51.032;7.082;2022-10-31T05:12:47;13.70;;;4.97;;
4148;SDS011;2088;51.032;7.082;2022-10-31T05:15:14;10.40;;;4.43;;
4148;SDS011;2088;51.032;7.082;2022-10-31T05:17:41;11.13;;;4.90;;
4148;SDS011;2088;51.032;7.082;2022-10-31T05:20:08;7.87;;;4.67;;
4148;SDS011;2088;51.032;7.082;2022-10-31T05:22:35;9.00;;;4.80;;
4148;SDS011;2088;51.032;7.082;2022-10-31T05:25:01;10.03;;;4.40;;
4148;SDS011;2088;51.032;7.082;2022-10-31T05:27:28;11.90;;;5.00;;
4148;SDS011;2088;51.032;7.082;2022-10-31T05:29:55;6.83;;;5.00;;
4148;SDS011;2088;51.032;7.082;2022-10-31T05:32:22;9.20;;;4.63;;
4148;SDS011;2088;51.032;7.082;2022-10-31T05:34:48;8.43;;;5.70;;
4148;SDS011;2088;51.032;7.082;2022-10-31T05:37:15;9.70;;;6.03;;
4148;SDS011;2088;51.032;7.082;2022-10-31T05:39:41;9.97;;;4.83;;
4148;SDS011;2088;51.032;7.082;2022-10-31T05:42:07;20.40;;;6.17;;
4148;SDS011;2088;51.032;7.082;2022-10-31T05:44:34;8.93;;;5.50;;
4148;SDS011;2088;51.032;7.082;2022-10-31T05:47:02;19.93;;;5.70;;
4148;SDS011;2088;51.032;7.082;2022-10-31T05:49:28;16.20;;;5.30;;
4148;SDS011;2088;51.032;7.082;2022-10-31T05:51:54;14.23;;;5.60;;
4148;SDS011;2088;51.032;7.082;2022-10-31T05:54:21;11.40;;;4.33;;
4148;SDS011;2088;51.032;7.082;2022-10-31T05:56:47;31.23;;;6.73;;
4148;SDS011;2088;51.032;7.082;2022-10-31T05:59:14;16.90;;;5.60;;
4148;SDS011;2088;51.032;7.082;2022-10-31T06:01:40;17.80;;;5.80;;
4148;SDS011;2088;51.032;7.082;2022-10-31T06:04:08;8.67;;;4.63;;
4148;SDS011;2088;51.032;7.082;2022-10-31T06:06:34;11.77;;;5.20;;
4148;SDS011;2088;51.032;7.082;2022-10-31T06:09:01;12.60;;;5.10;;
4148;SDS011;2088;51.032;7.082;2022-10-31T06:11:27;10.53;;;5.70;;
4148;SDS011;2088;51.032;7.082;2022-10-31T06:13:54;10.80;;;4.30;;
4148;SDS011;2088;51.032;7.082;2022-10-31T06:16:20;19.97;;;6.23;;
4148;SDS011;2088;51.032;7.082;2022-10-31T06:18:46;11.60;;;6.70;;
4148;SDS011;2088;51.032;7.082;2022-10-31T06:21:14;8.63;;;5.10;;
4148;SDS011;2088;51.032;7.082;2022-10-31T06:23:41;20.10;;;5.17;;
4148;SDS011;2088;51.032;7.082;2022-10-31T06:26:07;7.57;;;4.57;;
4148;SDS011;2088;51.032;7.082;2022-10-31T06:28:34;6.77;;;5.13;;
4148;SDS011;2088;51.032;7.082;2022-10-31T06:31:00;11.40;;;4.73;;
4148;SDS011;2088;51.032;7.082;2022-10-31T06:33:26;10.87;;;5.30;;
4148;SDS011;2088;51.032;7.082;2022-10-31T06:35:53;16.53;;;5.27;;
4148;SDS011;2088;51.032;7.082;2022-10-31T06:38:21;16.97;;;6.90;;
4148;SDS011;2088;51.032;7.082;2022-10-31T06:40:47;26.20;;;7.23;;
4148;SDS011;2088;51.032;7.082;2022-10-31T06:43:14;11.40;;;5.63;;
4148;SDS011;2088;51.032;7.082;2022-10-31T06:45:40;14.17;;;5.90;;
4148;SDS011;2088;51.032;7.082;2022-10-31T06:48:07;12.80;;;6.03;;
4148;SDS011;2088;51.032;7.082;2022-10-31T06:50:33;8.07;;;5.13;;
4148;SDS011;2088;51.032;7.082;2022-10-31T06:52:59;13.03;;;4.70;;
4148;SDS011;2088;51.032;7.082;2022-10-31T06:55:27;12.53;;;6.30;;
4148;SDS011;2088;51.032;7.082;2022-10-31T06:57:54;13.80;;;6.33;;
4148;SDS011;2088;51.032;7.082;2022-10-31T07:00:22;10.23;;;5.27;;
4148;SDS011;2088;51.032;7.082;2022-10-31T07:02:53;15.17;;;6.03;;
4148;SDS011;2088;51.032;7.082;2022-10-31T07:05:20;14.07;;;5.60;;
4148;SDS011;2088;51.032;7.082;2022-10-31T07:07:47;11.33;;;5.37;;
4148;SDS011;2088;51.032;7.082;2022-10-31T07:10:13;18.20;;;6.30;;
4148;SDS011;2088;51.032;7.082;2022-10-31T07:12:41;8.60;;;5.10;;
4148;SDS011;2088;51.032;7.082;2022-10-31T07:15:08;13.53;;;5.20;;
4148;SDS011;2088;51.032;7.082;2022-10-31T07:17:34;7.20;;;4.37;;
4148;SDS011;2088;51.032;7.082;2022-10-31T07:20:01;11.43;;;5.13;;
4148;SDS011;2088;51.032;7.082;2022-10-31T07:22:31;8.93;;;5.03;;
4148;SDS011;2088;51.032;7.082;2022-10-31T07:24:59;12.33;;;5.43;;
4148;SDS011;2088;51.032;7.082;2022-10-31T07:27:25;13.50;;;5.80;;
4148;SDS011;2088;51.032;7.082;2022-10-31T07:29:53;9.37;;;5.40;;
4148;SDS011;2088;51.032;7.082;2022-10-31T07:32:19;11.57;;;4.60;;
4148;SDS011;2088;51.032;7.082;2022-10-31T07:34:46;8.90;;;5.13;;
4148;SDS011;2088;51.032;7.082;2022-10-31T07:37:12;8.43;;;4.60;;
4148;SDS011;2088;51.032;7.082;2022-10-31T07:39:38;14.80;;;7.20;;
4148;SDS011;2088;51.032;7.082;2022-10-31T07:42:05;9.23;;;4.83;;
4148;SDS011;2088;51.032;7.082;2022-10-31T07:44:31;23.67;;;5.80;;
4148;SDS011;2088;51.032;7.082;2022-10-31T07:46:59;9.70;;;4.13;;
4148;SDS011;2088;51.032;7.082;2022-10-31T07:49:25;13.63;;;6.87;;
4148;SDS011;2088;51.032;7.082;2022-10-31T07:51:52;15.83;;;4.33;;
4148;SDS011;2088;51.032;7.082;2022-10-31T07:54:18;7.50;;;4.03;;
4148;SDS011;2088;51.032;7.082;2022-10-31T07:56:45;5.97;;;3.63;;
4148;SDS011;2088;51.032;7.082;2022-10-31T07:59:12;8.13;;;4.53;;
4148;SDS011;2088;51.032;7.082;2022-10-31T08:01:38;7.53;;;3.67;;
4148;SDS011;2088;51.032;7.082;2022-10-31T08:04:06;9.83;;;4.90;;
4148;SDS011;2088;51.032;7.082;2022-10-31T08:06:33;5.20;;;4.60;;
4148;SDS011;2088;51.032;7.082;2022-10-31T08:09:00;9.23;;;5.23;;
4148;SDS011;2088;51.032;7.082;2022-10-31T08:11:26;9.77;;;4.67;;
4148;SDS011;2088;51.032;7.082;2022-10-31T08:13:53;6.57;;;4.70;;
4148;SDS011;2088;51.032;7.082;2022-10-31T08:16:19;8.20;;;4.60;;
4148;SDS011;2088;51.032;7.082;2022-10-31T08:18:45;12.37;;;4.77;;
4148;SDS011;2088;51.032;7.082;2022-10-31T08:21:14;15.20;;;6.80;;
4148;SDS011;2088;51.032;7.082;2022-10-31T08:23:40;6.73;;;3.93;;
4148;SDS011;2088;51.032;7.082;2022-10-31T08:26:06;7.90;;;3.83;;
4148;SDS011;2088;51.032;7.082;2022-10-31T08:28:33;15.20;;;4.90;;
4148;SDS011;2088;51.032;7.082;2022-10-31T08:30:59;10.30;;;4.10;;
4148;SDS011;2088;51.032;7.082;2022-10-31T08:33:26;10.90;;;4.70;;
4148;SDS011;2088;51.032;7.082;2022-10-31T08:35:52;10.27;;;4.90;;
4148;SDS011;2088;51.032;7.082;2022-10-31T08:38:20;12.83;;;5.00;;
4148;SDS011;2088;51.032;7.082;2022-10-31T08:40:47;12.03;;;4.60;;
4148;SDS011;2088;51.032;7.082;2022-10-31T08:43:15;16.20;;;5.60;;
4148;SDS011;2088;51.032;7.082;2022-10-31T08:45:43;17.00;;;4.23;;
4148;SDS011;2088;51.032;7.082;2022-10-31T08:48:11;21.43;;;5.50;;
4148;SDS011;2088;51.032;7.082;2022-10-31T08:50:38;14.87;;;6.33;;
4148;SDS011;2088;51.032;7.082;2022-10-31T08:53:06;22.37;;;4.47;;
4148;SDS011;2088;51.032;7.082;2022-10-31T08:55:35;12.03;;;6.40;;
4148;SDS011;2088;51.032;7.082;2022-10-31T08:58:02;8.57;;;4.77;;
4148;SDS011;2088;51.032;7.082;2022-10-31T09:00:30;10.47;;;4.67;;
4148;SDS011;2088;51.032;7.082;2022-10-31T09:02:57;24.83;;;5.30;;
4148;SDS011;2088;51.032;7.082;2022-10-31T09:05:24;17.23;;;5.47;;
4148;SDS011;2088;51.032;7.082;2022-10-31T09:07:50;10.03;;;4.00;;
4148;SDS011;2088;51.032;7.082;2022-10-31T09:10:17;11.63;;;4.73;;
4148;SDS011;2088;51.032;7.082;2022-10-31T09:12:45;11.13;;;4.03;;
4148;SDS011;2088;51.032;7.082;2022-10-31T09:15:11;8.23;;;4.40;;
4148;SDS011;2088;51.032;7.082;2022-10-31T09:17:38;21.30;;;5.93;;
4148;SDS011;2088;51.032;7.082;2022-10-31T09:20:04;13.93;;;4.00;;
4148;SDS011;2088;51.032;7.082;2022-10-31T09:22:31;8.53;;;4.30;;
4148;SDS011;2088;51.032;7.082;2022-10-31T09:24:57;14.93;;;5.73;;
4148;SDS011;2088;51.032;7.082;2022-10-31T09:27:24;14.50;;;5.07;;
4148;SDS011;2088;51.032;7.082;2022-10-31T09:29:52;9.63;;;4.73;;
4148;SDS011;2088;51.032;7.082;2022-10-31T09:32:18;16.27;;;5.60;;
4148;SDS011;2088;51.032;7.082;2022-10-31T09:34:44;11.38;;;5.60;;
4148;SDS011;2088;51.032;7.082;2022-10-31T09:37:11;12.60;;;4.67;;
4148;SDS011;2088;51.032;7.082;2022-10-31T09:39:37;9.63;;;4.97;;
4148;SDS011;2088;51.032;7.082;2022-10-31T09:42:10;6.83;;;4.30;;
4148;SDS011;2088;51.032;7.082;2022-10-31T09:44:50;9.03;;;4.87;;
4148;SDS011;2088;51.032;7.082;2022-10-31T09:47:33;15.43;;;4.80;;
4148;SDS011;2088;51.032;7.082;2022-10-31T09:50:11;12.83;;;5.23;;
4148;SDS011;2088;51.032;7.082;2022-10-31T09:52:44;13.13;;;5.13;;
4148;SDS011;2088;51.032;7.082;2022-10-31T09:55:19;18.13;;;5.50;;
4148;SDS011;2088;51.032;7.082;2022-10-31T09:57:57;13.93;;;4.33;;
4148;SDS011;2088;51.032;7.082;2022-10-31T10:00:26;17.93;;;5.50;;
4148;SDS011;2088;51.032;7.082;2022-10-31T10:02:56;11.67;;;4.97;;
4148;SDS011;2088;51.032;7.082;2022-10-31T10:05:24;13.17;;;4.50;;
4148;SDS011;2088;51.032;7.082;2022-10-31T10:08:00;17.43;;;5.43;;
4148;SDS011;2088;51.032;7.082;2022-10-31T10:10:36;11.60;;;4.50;;
4148;SDS011;2088;51.032;7.082;2022-10-31T10:13:20;14.07;;;5.73;;
4148;SDS011;2088;51.032;7.082;2022-10-31T10:16:03;7.87;;;4.47;;
4148;SDS011;2088;51.032;7.082;2022-10-31T10:18:43;16.63;;;6.60;;
4148;SDS011;2088;51.032;7.082;2022-10-31T10:21:26;15.20;;;4.80;;
4148;SDS011;2088;51.032;7.082;2022-10-31T10:24:07;17.17;;;5.47;;
4148;SDS011;2088;51.032;7.082;2022-10-31T10:26:46;13.10;;;4.43;;
4148;SDS011;2088;51.032;7.082;2022-10-31T10:29:25;12.10;;;5.20;;
4148;SDS011;2088;51.032;7.082;2022-10-31T10:32:02;17.53;;;4.00;;
4148;SDS011;2088;51.032;7.082;2022-10-31T10:34:41;18.00;;;4.90;;
4148;SDS011;2088;51.032;7.082;2022-10-31T10:37:14;7.77;;;3.90;;
4148;SDS011;2088;51.032;7.082;2022-10-31T10:39:49;10.63;;;3.30;;
4148;SDS011;2088;51.032;7.082;2022-10-31T10:42:20;6.20;;;3.70;;
4148;SDS011;2088;51.032;7.082;2022-10-31T10:45:09;10.03;;;3.70;;
4148;SDS011;2088;51.032;7.082;2022-10-31T10:48:00;7.90;;;3.37;;
4148;SDS011;2088;51.032;7.082;2022-10-31T10:50:34;5.87;;;2.90;;
4148;SDS011;2088;51.032;7.082;2022-10-31T10:53:06;25.13;;;4.70;;
4148;SDS011;2088;51.032;7.082;2022-10-31T10:55:48;14.60;;;3.87;;
4148;SDS011;2088;51.032;7.082;2022-10-31T10:58:19;10.70;;;3.40;;
4148;SDS011;2088;51.032;7.082;2022-10-31T11:00:46;8.73;;;3.33;;
4148;SDS011;2088;51.032;7.082;2022-10-31T11:03:16;13.70;;;4.13;;
4148;SDS011;2088;51.032;7.082;2022-10-31T11:05:44;13.93;;;4.47;;
4148;SDS011;2088;51.032;7.082;2022-10-31T11:08:23;9.73;;;4.00;;
4148;SDS011;2088;51.032;7.082;2022-10-31T11:11:01;10.80;;;3.80;;
4148;SDS011;2088;51.032;7.082;2022-10-31T11:13:30;6.87;;;4.13;;
4148;SDS011;2088;51.032;7.082;2022-10-31T11:15:58;7.73;;;4.17;;
4148;SDS011;2088;51.032;7.082;2022-10-31T11:18:30;11.03;;;3.50;;
4148;SDS011;2088;51.032;7.082;2022-10-31T11:20:59;9.97;;;3.73;;
4148;SDS011;2088;51.032;7.082;2022-10-31T11:23:28;13.73;;;3.47;;
4148;SDS011;2088;51.032;7.082;2022-10-31T11:25:56;15.50;;;4.53;;
4148;SDS011;2088;51.032;7.082;2022-10-31T11:28:23;11.67;;;3.13;;
4148;SDS011;2088;51.032;7.082;2022-10-31T11:30:52;7.63;;;3.23;;
4148;SDS011;2088;51.032;7.082;2022-10-31T11:33:24;17.43;;;4.20;;
4148;SDS011;2088;51.032;7.082;2022-10-31T11:35:55;9.90;;;3.20;;
4148;SDS011;2088;51.032;7.082;2022-10-31T11:38:23;13.07;;;3.50;;
4148;SDS011;2088;51.032;7.082;2022-10-31T11:40:53;9.87;;;4.40;;
4148;SDS011;2088;51.032;7.082;2022-10-31T11:43:22;6.93;;;3.10;;
4148;SDS011;2088;51.032;7.082;2022-10-31T11:45:49;10.63;;;4.20;;
4148;SDS011;2088;51.032;7.082;2022-10-31T11:48:16;9.97;;;4.73;;
4148;SDS011;2088;51.032;7.082;2022-10-31T11:50:47;10.83;;;3.10;;
4148;SDS011;2088;51.032;7.082;2022-10-31T11:53:18;5.37;;;3.17;;
4148;SDS011;2088;51.032;7.082;2022-10-31T11:55:46;12.30;;;3.17;;
4148;SDS011;2088;51.032;7.082;2022-10-31T11:58:26;12.30;;;2.90;;
4148;SDS011;2088;51.032;7.082;2022-10-31T12:00:53;10.43;;;3.40;;
4148;SDS011;2088;51.032;7.082;2022-10-31T12:03:26;8.53;;;3.27;;
4148;SDS011;2088;51.032;7.082;2022-10-31T12:06:00;8.03;;;3.27;;
4148;SDS011;2088;51.032;7.082;2022-10-31T12:08:33;7.27;;;3.87;;
4148;SDS011;2088;51.032;7.082;2022-10-31T12:11:03;7.10;;;3.17;;
4148;SDS011;2088;51.032;7.082;2022-10-31T12:13:37;6.53;;;2.57;;
4148;SDS011;2088;51.032;7.082;2022-10-31T12:16:12;9.40;;;3.67;;
4148;SDS011;2088;51.032;7.082;2022-10-31T12:18:55;6.43;;;3.37;;
4148;SDS011;2088;51.032;7.082;2022-10-31T12:21:32;11.53;;;2.90;;
4148;SDS011;2088;51.032;7.082;2022-10-31T12:24:12;10.83;;;2.50;;
4148;SDS011;2088;51.032;7.082;2022-10-31T12:26:50;11.03;;;3.47;;
4148;SDS011;2088;51.032;7.082;2022-10-31T12:29:27;9.43;;;2.60;;
4148;SDS011;2088;51.032;7.082;2022-10-31T12:32:15;6.30;;;2.50;;
4148;SDS011;2088;51.032;7.082;2022-10-31T12:35:03;8.93;;;2.40;;
4148;SDS011;2088;51.032;7.082;2022-10-31T12:37:52;8.57;;;3.30;;
4148;SDS011;2088;51.032;7.082;2022-10-31T12:40:30;7.47;;;2.37;;
4148;SDS011;2088;51.032;7.082;2022-10-31T12:43:12;8.10;;;2.50;;
4148;SDS011;2088;51.032;7.082;2022-10-31T12:45:51;13.63;;;3.40;;
4148;SDS011;2088;51.032;7.082;2022-10-31T12:48:24;15.03;;;3.83;;
4148;SDS011;2088;51.032;7.082;2022-10-31T12:51:05;12.67;;;2.77;;
4148;SDS011;2088;51.032;7.082;2022-10-31T12:53:44;6.10;;;2.93;;
4148;SDS011;2088;51.032;7.082;2022-10-31T12:56:29;12.40;;;3.00;;
4148;SDS011;2088;51.032;7.082;2022-10-31T12:59:04;9.07;;;4.20;;
4148;SDS011;2088;51.032;7.082;2022-10-31T13:01:37;12.27;;;3.43;;
4148;SDS011;2088;51.032;7.082;2022-10-31T13:04:10;5.30;;;2.77;;
4148;SDS011;2088;51.032;7.082;2022-10-31T13:06:42;16.10;;;3.37;;
4148;SDS011;2088;51.032;7.082;2022-10-31T13:09:15;18.03;;;2.47;;
4148;SDS011;2088;51.032;7.082;2022-10-31T13:11:47;6.80;;;3.30;;
4148;SDS011;2088;51.032;7.082;2022-10-31T13:14:20;5.20;;;2.17;;
4148;SDS011;2088;51.032;7.082;2022-10-31T13:16:50;7.10;;;3.43;;
4148;SDS011;2088;51.032;7.082;2022-10-31T13:19:20;15.93;;;2.90;;
4148;SDS011;2088;51.032;7.082;2022-10-31T13:21:51;8.57;;;2.63;;
4148;SDS011;2088;51.032;7.082;2022-10-31T13:24:27;8.50;;;3.50;;
4148;SDS011;2088;51.032;7.082;2022-10-31T13:26:59;6.60;;;3.50;;
4148;SDS011;2088;51.032;7.082;2022-10-31T13:29:30;3.87;;;2.20;;
4148;SDS011;2088;51.032;7.082;2022-10-31T13:31:59;20.67;;;2.97;;
4148;SDS011;2088;51.032;7.082;2022-10-31T13:34:30;7.80;;;2.73;;
4148;SDS011;2088;51.032;7.082;2022-10-31T13:37:01;7.43;;;2.20;;
4148;SDS011;2088;51.032;7.082;2022-10-31T13:39:38;10.07;;;2.90;;
4148;SDS011;2088;51.032;7.082;2022-10-31T13:42:15;9.73;;;2.70;;
4148;SDS011;2088;51.032;7.082;2022-10-31T13:44:48;7.30;;;2.53;;
4148;SDS011;2088;51.032;7.082;2022-10-31T13:47:22;20.03;;;3.10;;
4148;SDS011;2088;51.032;7.082;2022-10-31T13:49:50;8.77;;;3.20;;
4148;SDS011;2088;51.032;7.082;2022-10-31T13:52:22;8.40;;;2.57;;
4148;SDS011;2088;51.032;7.082;2022-10-31T13:54:50;7.43;;;2.67;;
4148;SDS011;2088;51.032;7.082;2022-10-31T13:57:24;3.53;;;2.00;;
4148;SDS011;2088;51.032;7.082;2022-10-31T13:59:58;4.90;;;2.50;;
4148;SDS011;2088;51.032;7.082;2022-10-31T14:02:27;5.23;;;2.50;;
4148;SDS011;2088;51.032;7.082;2022-10-31T14:04:56;17.33;;;2.90;;
4148;SDS011;2088;51.032;7.082;2022-10-31T14:07:25;5.77;;;2.80;;
4148;SDS011;2088;51.032;7.082;2022-10-31T14:09:54;12.37;;;2.23;;
4148;SDS011;2088;51.032;7.082;2022-10-31T14:12:26;10.13;;;2.87;;
4148;SDS011;2088;51.032;7.082;2022-10-31T14:14:56;7.53;;;2.43;;
4148;SDS011;2088;51.032;7.082;2022-10-31T14:17:26;8.73;;;2.83;;
4148;SDS011;2088;51.032;7.082;2022-10-31T14:23:11;10.90;;;2.50;;
4148;SDS011;2088;51.032;7.082;2022-10-31T14:25:53;13.33;;;2.40;;
4148;SDS011;2088;51.032;7.082;2022-10-31T14:28:21;9.10;;;2.60;;
4148;SDS011;2088;51.032;7.082;2022-10-31T14:30:57;8.10;;;3.30;;
4148;SDS011;2088;51.032;7.082;2022-10-31T14:33:26;10.50;;;3.27;;
4148;SDS011;2088;51.032;7.082;2022-10-31T14:35:56;14.40;;;3.20;;
4148;SDS011;2088;51.032;7.082;2022-10-31T14:38:41;8.80;;;2.80;;
4148;SDS011;2088;51.032;7.082;2022-10-31T14:41:33;17.10;;;3.47;;
4148;SDS011;2088;51.032;7.082;2022-10-31T14:47:20;7.57;;;2.77;;
4148;SDS011;2088;51.032;7.082;2022-10-31T14:52:57;9.00;;;3.03;;
4148;SDS011;2088;51.032;7.082;2022-10-31T14:55:29;5.00;;;2.50;;
4148;SDS011;2088;51.032;7.082;2022-10-31T14:57:57;9.90;;;2.80;;
4148;SDS011;2088;51.032;7.082;2022-10-31T15:00:28;9.07;;;3.50;;
4148;SDS011;2088;51.032;7.082;2022-10-31T15:03:09;9.30;;;2.73;;
4148;SDS011;2088;51.032;7.082;2022-10-31T15:05:41;7.30;;;3.40;;
4148;SDS011;2088;51.032;7.082;2022-10-31T15:08:13;10.40;;;2.90;;
4148;SDS011;2088;51.032;7.082;2022-10-31T15:10:51;11.67;;;3.03;;
4148;SDS011;2088;51.032;7.082;2022-10-31T15:13:19;12.40;;;3.43;;
4148;SDS011;2088;51.032;7.082;2022-10-31T15:15:48;11.70;;;2.57;;
4148;SDS011;2088;51.032;7.082;2022-10-31T15:18:18;13.17;;;3.90;;
4148;SDS011;2088;51.032;7.082;2022-10-31T15:20:46;17.20;;;4.07;;
4148;SDS011;2088;51.032;7.082;2022-10-31T15:23:15;12.27;;;2.90;;
4148;SDS011;2088;51.032;7.082;2022-10-31T15:25:46;9.27;;;2.53;;
4148;SDS011;2088;51.032;7.082;2022-10-31T15:28:13;5.50;;;2.53;;
4148;SDS011;2088;51.032;7.082;2022-10-31T15:30:48;6.73;;;2.40;;
4148;SDS011;2088;51.032;7.082;2022-10-31T15:33:18;8.70;;;3.00;;
4148;SDS011;2088;51.032;7.082;2022-10-31T15:35:53;17.50;;;3.33;;
4148;SDS011;2088;51.032;7.082;2022-10-31T15:38:21;6.50;;;3.20;;